sensor_id;sensor_type;location;lat;lon;timestamp;P1;durP1;ratioP1;P2;durP2;ratioP2
24084;SDS011;12268;52.110;5.548;2023-08-24T00:01:15;17.23;;;13.13;;
24084;SDS011;12268;52.110;5.548;2023-08-24T00:03:41;17.30;;;12.38;;
24084;SDS011;12268;52.110;5.548;2023-08-24T00:06:13;19.40;;;12.48;;
24084;SDS011;12268;52.110;5.548;2023-08-24T00:08:39;19.40;;;13.02;;
24084;SDS011;12268;52.110;5.548;2023-08-24T00:11:04;17.73;;;12.52;;
24084;SDS011;12268;52.110;5.548;2023-08-24T00:13:31;18.00;;;12.68;;
24084;SDS011;12268;52.110;5.548;2023-08-24T00:15:57;18.67;;;12.70;;
24084;SDS011;12268;52.110;5.548;2023-08-24T00:18:22;16.85;;;12.63;;
24084;SDS011;12268;52.110;5.548;2023-08-24T00:20:49;17.98;;;12.20;;
24084;SDS011;12268;52.110;5.548;2023-08-24T00:23:15;16.25;;;12.00;;
24084;SDS011;12268;52.110;5.548;2023-08-24T00:25:41;15.18;;;10.20;;
24084;SDS011;12268;52.110;5.548;2023-08-24T00:28:06;15.40;;;10.88;;
24084;SDS011;12268;52.110;5.548;2023-08-24T00:30:32;15.50;;;11.10;;
24084;SDS011;12268;52.110;5.548;2023-08-24T00:32:58;18.02;;;11.68;;
24084;SDS011;12268;52.110;5.548;2023-08-24T00:35:23;15.57;;;10.85;;
24084;SDS011;12268;52.110;5.548;2023-08-24T00:37:49;16.60;;;10.57;;
24084;SDS011;12268;52.110;5.548;2023-08-24T00:40:15;13.00;;;9.98;;
24084;SDS011;12268;52.110;5.548;2023-08-24T00:42:42;16.38;;;9.48;;
24084;SDS011;12268;52.110;5.548;2023-08-24T00:45:10;16.23;;;10.07;;
24084;SDS011;12268;52.110;5.548;2023-08-24T00:47:36;15.60;;;10.48;;
24084;SDS011;12268;52.110;5.548;2023-08-24T00:50:05;16.00;;;10.80;;
24084;SDS011;12268;52.110;5.548;2023-08-24T00:52:31;17.35;;;10.32;;
24084;SDS011;12268;52.110;5.548;2023-08-24T00:55:01;14.85;;;10.23;;
24084;SDS011;12268;52.110;5.548;2023-08-24T00:57:27;14.13;;;10.23;;
24084;SDS011;12268;52.110;5.548;2023-08-24T00:59:53;17.35;;;10.23;;
24084;SDS011;12268;52.110;5.548;2023-08-24T01:02:20;13.13;;;8.98;;
24084;SDS011;12268;52.110;5.548;2023-08-24T01:04:46;14.57;;;10.07;;
24084;SDS011;12268;52.110;5.548;2023-08-24T01:07:12;13.65;;;9.63;;
24084;SDS011;12268;52.110;5.548;2023-08-24T01:09:38;13.07;;;9.57;;
24084;SDS011;12268;52.110;5.548;2023-08-24T01:12:05;16.65;;;10.27;;
24084;SDS011;12268;52.110;5.548;2023-08-24T01:15:00;19.48;;;11.05;;
24084;SDS011;12268;52.110;5.548;2023-08-24T01:17:27;14.00;;;10.02;;
24084;SDS011;12268;52.110;5.548;2023-08-24T01:19:55;14.73;;;10.05;;
24084;SDS011;12268;52.110;5.548;2023-08-24T01:27:37;14.27;;;10.30;;
24084;SDS011;12268;52.110;5.548;2023-08-24T01:30:04;13.45;;;10.52;;
24084;SDS011;12268;52.110;5.548;2023-08-24T01:32:30;14.30;;;10.32;;
24084;SDS011;12268;52.110;5.548;2023-08-24T01:34:58;13.27;;;10.43;;
24084;SDS011;12268;52.110;5.548;2023-08-24T01:37:24;14.98;;;11.07;;
24084;SDS011;12268;52.110;5.548;2023-08-24T01:42:45;15.85;;;10.65;;
24084;SDS011;12268;52.110;5.548;2023-08-24T01:45:17;16.55;;;11.40;;
24084;SDS011;12268;52.110;5.548;2023-08-24T01:47:44;15.52;;;9.90;;
24084;SDS011;12268;52.110;5.548;2023-08-24T01:50:12;16.70;;;10.98;;
24084;SDS011;12268;52.110;5.548;2023-08-24T01:52:38;12.52;;;10.27;;
24084;SDS011;12268;52.110;5.548;2023-08-24T01:55:04;16.30;;;11.02;;
24084;SDS011;12268;52.110;5.548;2023-08-24T01:57:29;20.20;;;13.07;;
24084;SDS011;12268;52.110;5.548;2023-08-24T01:59:55;19.55;;;12.27;;
24084;SDS011;12268;52.110;5.548;2023-08-24T02:02:20;16.55;;;11.38;;
24084;SDS011;12268;52.110;5.548;2023-08-24T02:04:46;14.85;;;11.48;;
24084;SDS011;12268;52.110;5.548;2023-08-24T02:07:12;13.90;;;10.90;;
24084;SDS011;12268;52.110;5.548;2023-08-24T02:09:38;16.20;;;10.95;;
24084;SDS011;12268;52.110;5.548;2023-08-24T02:12:04;14.00;;;11.02;;
24084;SDS011;12268;52.110;5.548;2023-08-24T02:14:29;15.10;;;11.50;;
24084;SDS011;12268;52.110;5.548;2023-08-24T02:16:55;14.57;;;10.93;;
24084;SDS011;12268;52.110;5.548;2023-08-24T02:19:20;15.88;;;11.25;;
24084;SDS011;12268;52.110;5.548;2023-08-24T02:21:46;17.90;;;11.40;;
24084;SDS011;12268;52.110;5.548;2023-08-24T02:24:11;15.73;;;11.40;;
24084;SDS011;12268;52.110;5.548;2023-08-24T02:26:37;21.10;;;11.68;;
24084;SDS011;12268;52.110;5.548;2023-08-24T02:29:02;16.13;;;11.13;;
24084;SDS011;12268;52.110;5.548;2023-08-24T02:31:28;16.25;;;11.05;;
24084;SDS011;12268;52.110;5.548;2023-08-24T02:33:54;19.00;;;11.57;;
24084;SDS011;12268;52.110;5.548;2023-08-24T02:36:19;18.25;;;11.57;;
24084;SDS011;12268;52.110;5.548;2023-08-24T02:38:45;18.77;;;11.13;;
24084;SDS011;12268;52.110;5.548;2023-08-24T02:41:11;22.33;;;11.40;;
24084;SDS011;12268;52.110;5.548;2023-08-24T02:43:39;18.33;;;11.25;;
24084;SDS011;12268;52.110;5.548;2023-08-24T02:46:08;18.02;;;11.05;;
24084;SDS011;12268;52.110;5.548;2023-08-24T02:48:34;18.00;;;11.50;;
24084;SDS011;12268;52.110;5.548;2023-08-24T02:51:01;17.45;;;12.63;;
24084;SDS011;12268;52.110;5.548;2023-08-24T02:53:28;18.33;;;12.13;;
24084;SDS011;12268;52.110;5.548;2023-08-24T02:55:57;17.00;;;12.20;;
24084;SDS011;12268;52.110;5.548;2023-08-24T02:58:23;19.98;;;14.80;;
24084;SDS011;12268;52.110;5.548;2023-08-24T03:00:48;25.60;;;16.10;;
24084;SDS011;12268;52.110;5.548;2023-08-24T03:03:14;24.85;;;17.25;;
24084;SDS011;12268;52.110;5.548;2023-08-24T03:05:40;29.88;;;17.23;;
24084;SDS011;12268;52.110;5.548;2023-08-24T03:08:16;27.75;;;17.20;;
24084;SDS011;12268;52.110;5.548;2023-08-24T03:10:41;30.65;;;17.23;;
24084;SDS011;12268;52.110;5.548;2023-08-24T03:13:07;26.42;;;16.80;;
24084;SDS011;12268;52.110;5.548;2023-08-24T03:15:32;31.20;;;17.25;;
24084;SDS011;12268;52.110;5.548;2023-08-24T03:18:00;29.13;;;18.15;;
24084;SDS011;12268;52.110;5.548;2023-08-24T03:20:26;26.15;;;16.90;;
24084;SDS011;12268;52.110;5.548;2023-08-24T03:22:51;28.52;;;17.88;;
24084;SDS011;12268;52.110;5.548;2023-08-24T03:25:17;26.85;;;17.77;;
24084;SDS011;12268;52.110;5.548;2023-08-24T03:27:42;25.38;;;16.40;;
24084;SDS011;12268;52.110;5.548;2023-08-24T03:30:08;30.30;;;17.38;;
24084;SDS011;12268;52.110;5.548;2023-08-24T03:32:33;28.05;;;16.67;;
24084;SDS011;12268;52.110;5.548;2023-08-24T03:34:59;26.10;;;17.42;;
24084;SDS011;12268;52.110;5.548;2023-08-24T03:37:25;28.77;;;17.83;;
24084;SDS011;12268;52.110;5.548;2023-08-24T03:39:50;30.13;;;17.92;;
24084;SDS011;12268;52.110;5.548;2023-08-24T03:42:16;31.92;;;17.45;;
24084;SDS011;12268;52.110;5.548;2023-08-24T03:44:42;30.02;;;17.33;;
24084;SDS011;12268;52.110;5.548;2023-08-24T03:47:07;25.70;;;17.58;;
24084;SDS011;12268;52.110;5.548;2023-08-24T03:49:33;24.40;;;17.25;;
24084;SDS011;12268;52.110;5.548;2023-08-24T03:51:59;27.77;;;17.23;;
24084;SDS011;12268;52.110;5.548;2023-08-24T03:54:24;25.60;;;15.68;;
24084;SDS011;12268;52.110;5.548;2023-08-24T03:56:50;22.40;;;16.67;;
24084;SDS011;12268;52.110;5.548;2023-08-24T03:59:16;25.45;;;16.42;;
24084;SDS011;12268;52.110;5.548;2023-08-24T04:01:42;24.42;;;16.17;;
24084;SDS011;12268;52.110;5.548;2023-08-24T04:04:07;32.00;;;15.40;;
24084;SDS011;12268;52.110;5.548;2023-08-24T04:06:33;27.50;;;15.73;;
24084;SDS011;12268;52.110;5.548;2023-08-24T04:08:58;27.90;;;16.88;;
24084;SDS011;12268;52.110;5.548;2023-08-24T04:11:24;26.90;;;16.55;;
24084;SDS011;12268;52.110;5.548;2023-08-24T04:13:49;27.05;;;16.70;;
24084;SDS011;12268;52.110;5.548;2023-08-24T04:16:15;25.35;;;16.30;;
24084;SDS011;12268;52.110;5.548;2023-08-24T04:18:40;25.10;;;16.40;;
24084;SDS011;12268;52.110;5.548;2023-08-24T04:21:06;25.42;;;16.50;;
24084;SDS011;12268;52.110;5.548;2023-08-24T04:23:31;29.95;;;17.00;;
24084;SDS011;12268;52.110;5.548;2023-08-24T04:25:57;24.35;;;16.58;;
24084;SDS011;12268;52.110;5.548;2023-08-24T04:28:23;27.95;;;16.23;;
24084;SDS011;12268;52.110;5.548;2023-08-24T04:30:55;27.98;;;16.25;;
24084;SDS011;12268;52.110;5.548;2023-08-24T04:33:22;28.20;;;16.27;;
24084;SDS011;12268;52.110;5.548;2023-08-24T04:35:51;27.48;;;16.85;;
24084;SDS011;12268;52.110;5.548;2023-08-24T04:38:16;28.60;;;17.33;;
24084;SDS011;12268;52.110;5.548;2023-08-24T04:40:52;32.90;;;17.60;;
24084;SDS011;12268;52.110;5.548;2023-08-24T04:43:20;26.80;;;17.88;;
24084;SDS011;12268;52.110;5.548;2023-08-24T04:45:47;28.17;;;17.08;;
24084;SDS011;12268;52.110;5.548;2023-08-24T04:48:14;28.95;;;17.10;;
24084;SDS011;12268;52.110;5.548;2023-08-24T04:50:41;31.38;;;18.00;;
24084;SDS011;12268;52.110;5.548;2023-08-24T04:53:08;34.40;;;18.88;;
24084;SDS011;12268;52.110;5.548;2023-08-24T04:55:34;35.25;;;18.55;;
24084;SDS011;12268;52.110;5.548;2023-08-24T04:58:00;28.77;;;18.48;;
24084;SDS011;12268;52.110;5.548;2023-08-24T05:00:25;29.58;;;18.17;;
24084;SDS011;12268;52.110;5.548;2023-08-24T05:02:51;34.40;;;18.35;;
24084;SDS011;12268;52.110;5.548;2023-08-24T05:05:16;32.03;;;17.60;;
24084;SDS011;12268;52.110;5.548;2023-08-24T05:07:42;28.13;;;17.70;;
24084;SDS011;12268;52.110;5.548;2023-08-24T05:10:07;28.85;;;18.35;;
24084;SDS011;12268;52.110;5.548;2023-08-24T05:12:33;33.53;;;18.27;;
24084;SDS011;12268;52.110;5.548;2023-08-24T05:15:03;25.75;;;17.30;;
24084;SDS011;12268;52.110;5.548;2023-08-24T05:17:29;25.67;;;16.55;;
24084;SDS011;12268;52.110;5.548;2023-08-24T05:19:56;24.25;;;16.95;;
24084;SDS011;12268;52.110;5.548;2023-08-24T05:22:22;21.52;;;15.10;;
24084;SDS011;12268;52.110;5.548;2023-08-24T05:24:48;21.73;;;15.00;;
24084;SDS011;12268;52.110;5.548;2023-08-24T05:27:14;23.10;;;16.23;;
24084;SDS011;12268;52.110;5.548;2023-08-24T05:29:39;23.58;;;15.52;;
24084;SDS011;12268;52.110;5.548;2023-08-24T05:32:05;28.25;;;17.60;;
24084;SDS011;12268;52.110;5.548;2023-08-24T05:34:30;28.98;;;16.83;;
24084;SDS011;12268;52.110;5.548;2023-08-24T05:36:56;28.90;;;16.35;;
24084;SDS011;12268;52.110;5.548;2023-08-24T05:39:22;24.13;;;16.45;;
24084;SDS011;12268;52.110;5.548;2023-08-24T05:41:51;25.45;;;15.95;;
24084;SDS011;12268;52.110;5.548;2023-08-24T05:44:20;23.35;;;15.55;;
24084;SDS011;12268;52.110;5.548;2023-08-24T05:46:46;21.83;;;14.95;;
24084;SDS011;12268;52.110;5.548;2023-08-24T05:49:12;23.08;;;15.43;;
24084;SDS011;12268;52.110;5.548;2023-08-24T05:51:38;24.52;;;14.75;;
24084;SDS011;12268;52.110;5.548;2023-08-24T05:54:04;22.33;;;14.18;;
24084;SDS011;12268;52.110;5.548;2023-08-24T05:56:30;23.30;;;15.27;;
24084;SDS011;12268;52.110;5.548;2023-08-24T05:58:56;23.48;;;15.75;;
24084;SDS011;12268;52.110;5.548;2023-08-24T06:01:23;22.17;;;14.75;;
24084;SDS011;12268;52.110;5.548;2023-08-24T06:03:49;23.25;;;15.65;;
24084;SDS011;12268;52.110;5.548;2023-08-24T06:06:14;21.42;;;15.45;;
24084;SDS011;12268;52.110;5.548;2023-08-24T06:08:40;19.92;;;15.18;;
24084;SDS011;12268;52.110;5.548;2023-08-24T06:11:06;25.85;;;15.55;;
24084;SDS011;12268;52.110;5.548;2023-08-24T06:13:31;25.98;;;16.73;;
24084;SDS011;12268;52.110;5.548;2023-08-24T06:15:57;23.45;;;14.73;;
24084;SDS011;12268;52.110;5.548;2023-08-24T06:18:22;24.02;;;15.45;;
24084;SDS011;12268;52.110;5.548;2023-08-24T06:20:48;19.08;;;14.48;;
24084;SDS011;12268;52.110;5.548;2023-08-24T06:23:15;23.30;;;14.98;;
24084;SDS011;12268;52.110;5.548;2023-08-24T06:25:42;18.33;;;14.60;;
24084;SDS011;12268;52.110;5.548;2023-08-24T06:28:07;21.00;;;13.98;;
24084;SDS011;12268;52.110;5.548;2023-08-24T06:30:36;17.98;;;14.27;;
24084;SDS011;12268;52.110;5.548;2023-08-24T06:33:05;18.92;;;14.60;;
24084;SDS011;12268;52.110;5.548;2023-08-24T06:35:34;20.95;;;14.63;;
24084;SDS011;12268;52.110;5.548;2023-08-24T06:38:00;19.65;;;14.07;;
24084;SDS011;12268;52.110;5.548;2023-08-24T06:40:27;18.85;;;14.38;;
24084;SDS011;12268;52.110;5.548;2023-08-24T06:42:53;21.77;;;13.93;;
24084;SDS011;12268;52.110;5.548;2023-08-24T06:45:18;19.33;;;14.52;;
24084;SDS011;12268;52.110;5.548;2023-08-24T06:47:44;19.40;;;13.90;;
24084;SDS011;12268;52.110;5.548;2023-08-24T06:50:10;24.00;;;15.55;;
24084;SDS011;12268;52.110;5.548;2023-08-24T06:52:36;20.02;;;14.48;;
24084;SDS011;12268;52.110;5.548;2023-08-24T06:55:02;25.88;;;15.10;;
24084;SDS011;12268;52.110;5.548;2023-08-24T06:57:28;25.38;;;15.40;;
24084;SDS011;12268;52.110;5.548;2023-08-24T06:59:54;19.15;;;14.80;;
24084;SDS011;12268;52.110;5.548;2023-08-24T07:02:19;19.23;;;14.93;;
24084;SDS011;12268;52.110;5.548;2023-08-24T07:04:45;24.30;;;15.32;;
24084;SDS011;12268;52.110;5.548;2023-08-24T07:07:11;22.98;;;15.80;;
24084;SDS011;12268;52.110;5.548;2023-08-24T07:09:36;21.35;;;15.77;;
24084;SDS011;12268;52.110;5.548;2023-08-24T07:12:02;22.88;;;15.65;;
24084;SDS011;12268;52.110;5.548;2023-08-24T07:14:31;19.40;;;15.10;;
24084;SDS011;12268;52.110;5.548;2023-08-24T07:16:57;23.60;;;15.65;;
24084;SDS011;12268;52.110;5.548;2023-08-24T07:19:22;24.80;;;15.20;;
24084;SDS011;12268;52.110;5.548;2023-08-24T07:21:48;18.23;;;15.20;;
24084;SDS011;12268;52.110;5.548;2023-08-24T07:24:13;18.23;;;14.32;;
24084;SDS011;12268;52.110;5.548;2023-08-24T07:26:40;20.92;;;14.80;;
24084;SDS011;12268;52.110;5.548;2023-08-24T07:29:06;23.30;;;14.68;;
24084;SDS011;12268;52.110;5.548;2023-08-24T07:31:32;17.92;;;14.23;;
24084;SDS011;12268;52.110;5.548;2023-08-24T07:33:58;19.38;;;13.77;;
24084;SDS011;12268;52.110;5.548;2023-08-24T07:36:23;15.55;;;13.02;;
24084;SDS011;12268;52.110;5.548;2023-08-24T07:38:49;15.57;;;13.23;;
24084;SDS011;12268;52.110;5.548;2023-08-24T07:41:14;16.75;;;13.65;;
24084;SDS011;12268;52.110;5.548;2023-08-24T07:43:42;20.73;;;13.00;;
24084;SDS011;12268;52.110;5.548;2023-08-24T07:46:07;19.02;;;14.30;;
24084;SDS011;12268;52.110;5.548;2023-08-24T07:48:33;16.25;;;13.35;;
24084;SDS011;12268;52.110;5.548;2023-08-24T07:50:59;17.65;;;13.32;;
24084;SDS011;12268;52.110;5.548;2023-08-24T07:53:24;19.83;;;12.80;;
24084;SDS011;12268;52.110;5.548;2023-08-24T07:55:50;16.65;;;12.40;;
24084;SDS011;12268;52.110;5.548;2023-08-24T07:58:15;19.00;;;12.95;;
24084;SDS011;12268;52.110;5.548;2023-08-24T08:00:41;19.30;;;13.32;;
24084;SDS011;12268;52.110;5.548;2023-08-24T08:03:06;15.57;;;12.88;;
24084;SDS011;12268;52.110;5.548;2023-08-24T08:05:32;19.88;;;12.75;;
24084;SDS011;12268;52.110;5.548;2023-08-24T08:07:57;17.10;;;13.23;;
24084;SDS011;12268;52.110;5.548;2023-08-24T08:10:23;18.88;;;13.88;;
24084;SDS011;12268;52.110;5.548;2023-08-24T08:12:48;16.02;;;13.48;;
24084;SDS011;12268;52.110;5.548;2023-08-24T08:15:14;19.63;;;13.50;;
24084;SDS011;12268;52.110;5.548;2023-08-24T08:17:39;15.93;;;13.45;;
24084;SDS011;12268;52.110;5.548;2023-08-24T08:20:07;19.55;;;12.60;;
24084;SDS011;12268;52.110;5.548;2023-08-24T08:22:32;17.90;;;12.38;;
24084;SDS011;12268;52.110;5.548;2023-08-24T08:25:03;13.82;;;12.05;;
24084;SDS011;12268;52.110;5.548;2023-08-24T08:27:30;16.13;;;11.73;;
24084;SDS011;12268;52.110;5.548;2023-08-24T08:29:55;14.85;;;11.85;;
24084;SDS011;12268;52.110;5.548;2023-08-24T08:32:21;17.92;;;12.32;;
24084;SDS011;12268;52.110;5.548;2023-08-24T08:34:47;14.95;;;11.70;;
24084;SDS011;12268;52.110;5.548;2023-08-24T08:37:12;17.00;;;11.98;;
24084;SDS011;12268;52.110;5.548;2023-08-24T08:39:38;19.60;;;11.05;;
24084;SDS011;12268;52.110;5.548;2023-08-24T08:42:03;16.52;;;11.05;;
24084;SDS011;12268;52.110;5.548;2023-08-24T08:44:32;17.25;;;11.73;;
24084;SDS011;12268;52.110;5.548;2023-08-24T08:46:58;19.40;;;11.95;;
24084;SDS011;12268;52.110;5.548;2023-08-24T08:49:24;15.00;;;11.20;;
24084;SDS011;12268;52.110;5.548;2023-08-24T08:51:50;16.63;;;11.52;;
24084;SDS011;12268;52.110;5.548;2023-08-24T08:54:16;17.70;;;11.32;;
24084;SDS011;12268;52.110;5.548;2023-08-24T08:56:42;14.50;;;11.13;;
24084;SDS011;12268;52.110;5.548;2023-08-24T08:59:08;14.48;;;10.68;;
24084;SDS011;12268;52.110;5.548;2023-08-24T09:01:37;15.55;;;10.93;;
24084;SDS011;12268;52.110;5.548;2023-08-24T09:04:03;17.55;;;10.38;;
24084;SDS011;12268;52.110;5.548;2023-08-24T09:06:31;20.08;;;12.23;;
24084;SDS011;12268;52.110;5.548;2023-08-24T09:08:57;13.65;;;9.73;;
24084;SDS011;12268;52.110;5.548;2023-08-24T09:11:23;15.93;;;10.30;;
24084;SDS011;12268;52.110;5.548;2023-08-24T09:13:49;14.38;;;10.10;;
24084;SDS011;12268;52.110;5.548;2023-08-24T09:16:14;16.85;;;10.20;;
24084;SDS011;12268;52.110;5.548;2023-08-24T09:18:43;14.80;;;10.25;;
24084;SDS011;12268;52.110;5.548;2023-08-24T09:21:11;15.10;;;9.43;;
24084;SDS011;12268;52.110;5.548;2023-08-24T09:23:38;18.30;;;10.27;;
24084;SDS011;12268;52.110;5.548;2023-08-24T09:26:31;13.77;;;10.23;;
24084;SDS011;12268;52.110;5.548;2023-08-24T09:28:59;14.52;;;10.00;;
24084;SDS011;12268;52.110;5.548;2023-08-24T09:31:35;13.30;;;9.45;;
24084;SDS011;12268;52.110;5.548;2023-08-24T09:34:05;12.55;;;8.52;;
24084;SDS011;12268;52.110;5.548;2023-08-24T09:36:31;14.85;;;9.38;;
24084;SDS011;12268;52.110;5.548;2023-08-24T09:38:58;12.95;;;7.75;;
24084;SDS011;12268;52.110;5.548;2023-08-24T09:41:36;12.18;;;9.23;;
24084;SDS011;12268;52.110;5.548;2023-08-24T09:46:32;10.50;;;6.90;;
24084;SDS011;12268;52.110;5.548;2023-08-24T09:48:58;11.30;;;7.55;;
24084;SDS011;12268;52.110;5.548;2023-08-24T09:51:26;11.80;;;8.10;;
24084;SDS011;12268;52.110;5.548;2023-08-24T09:53:52;11.35;;;8.30;;
24084;SDS011;12268;52.110;5.548;2023-08-24T09:58:50;11.30;;;8.82;;
24084;SDS011;12268;52.110;5.548;2023-08-24T10:01:18;14.52;;;8.85;;
24084;SDS011;12268;52.110;5.548;2023-08-24T10:03:45;11.13;;;8.23;;
24084;SDS011;12268;52.110;5.548;2023-08-24T10:06:15;8.82;;;7.90;;
24084;SDS011;12268;52.110;5.548;2023-08-24T10:08:43;11.95;;;7.43;;
24084;SDS011;12268;52.110;5.548;2023-08-24T10:11:14;14.88;;;8.43;;
24084;SDS011;12268;52.110;5.548;2023-08-24T10:13:59;12.68;;;7.93;;
24084;SDS011;12268;52.110;5.548;2023-08-24T10:16:33;15.10;;;8.68;;
24084;SDS011;12268;52.110;5.548;2023-08-24T10:19:02;14.25;;;8.68;;
24084;SDS011;12268;52.110;5.548;2023-08-24T10:21:28;14.18;;;9.65;;
